createdAt,value
2018-02-25T00:00:04.964Z,1014.55
2018-02-25T00:01:18.733Z,1014.59
2018-02-25T00:02:33.460Z,1014.56
2018-02-25T00:03:47.740Z,1014.55
2018-02-25T00:05:02.536Z,1014.55
2018-02-25T00:06:16.820Z,1014.54
2018-02-25T00:07:31.053Z,1014.48
2018-02-25T00:08:45.331Z,1014.52
2018-02-25T00:09:59.556Z,1014.54
2018-02-25T00:11:14.056Z,1014.53
2018-02-25T00:12:28.561Z,1014.52
2018-02-25T00:13:42.541Z,1014.65
2018-02-25T00:14:56.301Z,1014.48
2018-02-25T00:16:10.560Z,1014.67
2018-02-25T00:17:24.848Z,1014.74
2018-02-25T00:18:39.095Z,1014.52
2018-02-25T00:19:53.482Z,1014.48
2018-02-25T00:21:08.005Z,1014.6
2018-02-25T00:22:22.118Z,1014.54
2018-02-25T00:23:36.140Z,1014.51
2018-02-25T00:24:50.403Z,1014.54
2018-02-25T00:26:04.441Z,1014.48
2018-02-25T00:27:18.454Z,1014.41
2018-02-25T00:28:33.223Z,1014.47
2018-02-25T00:29:47.514Z,1014.44
2018-02-25T00:31:01.510Z,1014.39
2018-02-25T00:32:15.778Z,1014.41
2018-02-25T00:33:30.461Z,1014.43
2018-02-25T00:34:45.020Z,1014.67
2018-02-25T00:35:59.490Z,1014.46
2018-02-25T00:37:13.502Z,1014.63
2018-02-25T00:38:27.506Z,1014.36
2018-02-25T00:39:41.521Z,1014.35
2018-02-25T00:40:56.030Z,1014.45
2018-02-25T00:42:10.008Z,1014.5
2018-02-25T00:43:23.767Z,1014.44
2018-02-25T00:44:38.003Z,1014.47
2018-02-25T00:45:52.011Z,1014.45
2018-02-25T00:47:06.480Z,1014.46
2018-02-25T00:48:20.308Z,1014.42
2018-02-25T00:49:34.526Z,1014.39
2018-02-25T00:50:48.046Z,1014.5
2018-02-25T00:52:02.573Z,1014.54
2018-02-25T00:53:17.041Z,1014.56
2018-02-25T00:54:31.260Z,1014.58
2018-02-25T00:55:45.357Z,1014.62
2018-02-25T00:56:59.606Z,1014.62
2018-02-25T00:58:14.360Z,1014.65
2018-02-25T00:59:28.320Z,1014.63
2018-02-25T01:00:42.572Z,1014.66
2018-02-25T01:01:56.099Z,1014.64
2018-02-25T01:03:10.372Z,1014.55
2018-02-25T01:04:24.615Z,1014.71
2018-02-25T01:05:39.091Z,1014.64
2018-02-25T01:06:53.358Z,1014.77
2018-02-25T01:08:07.978Z,1014.68
2018-02-25T01:09:21.988Z,1014.65
2018-02-25T01:10:36.218Z,1014.62
2018-02-25T01:11:50.466Z,1014.65
2018-02-25T01:13:04.991Z,1014.79
2018-02-25T01:14:18.962Z,1014.61
2018-02-25T01:15:32.495Z,1014.8
2018-02-25T01:16:46.744Z,1014.58
2018-02-25T01:18:00.730Z,1014.57
2018-02-25T01:19:14.486Z,1014.62
2018-02-25T01:20:28.714Z,1014.59
2018-02-25T01:21:43.208Z,1014.61
2018-02-25T01:22:57.212Z,1014.64
2018-02-25T01:24:11.448Z,1014.53
2018-02-25T01:25:25.715Z,1014.67
2018-02-25T01:26:39.486Z,1014.68
2018-02-25T01:27:53.970Z,1014.7
2018-02-25T01:29:08.051Z,1014.72
2018-02-25T01:30:22.041Z,1014.61
2018-02-25T01:31:35.791Z,1014.73
2018-02-25T01:32:49.314Z,1014.68
2018-02-25T01:34:03.538Z,1014.56
2018-02-25T01:35:17.266Z,1014.56
2018-02-25T01:36:31.227Z,1014.69
2018-02-25T01:37:45.219Z,1014.64
2018-02-25T01:38:59.439Z,1014.6
2018-02-25T01:40:13.911Z,1014.57
2018-02-25T01:41:28.161Z,1014.63
2018-02-25T01:42:41.649Z,1014.5
2018-02-25T01:43:55.920Z,1014.57
2018-02-25T01:45:09.907Z,1014.66
2018-02-25T01:46:23.850Z,1014.62
2018-02-25T01:47:38.366Z,1014.54
2018-02-25T01:48:52.342Z,1014.48
2018-02-25T01:50:06.615Z,1014.54
2018-02-25T01:51:21.061Z,1014.62
2018-02-25T01:52:35.074Z,1014.59
2018-02-25T01:53:48.836Z,1014.67
2018-02-25T01:55:03.071Z,1014.54
2018-02-25T01:56:17.087Z,1014.52
2018-02-25T01:57:31.293Z,1014.51
2018-02-25T01:58:45.763Z,1014.48
2018-02-25T02:00:00.030Z,1014.45
2018-02-25T02:01:14.241Z,1014.51
2018-02-25T02:02:28.336Z,1014.45
2018-02-25T02:03:42.562Z,1014.46
2018-02-25T02:04:56.558Z,1014.46
2018-02-25T02:06:10.788Z,1014.5
2018-02-25T02:07:25.007Z,1014.5
2018-02-25T02:08:38.967Z,1014.55
2018-02-25T02:09:53.448Z,1014.6
2018-02-25T02:11:07.686Z,1014.58
2018-02-25T02:12:21.676Z,1014.58
2018-02-25T02:13:35.720Z,1014.54
2018-02-25T02:14:48.748Z,1014.58
2018-02-25T02:16:02.479Z,1014.66
2018-02-25T02:17:17.174Z,1014.71
2018-02-25T02:18:31.258Z,1014.74
2018-02-25T02:19:45.475Z,1014.68
2018-02-25T02:20:59.757Z,1014.69
2018-02-25T02:22:14.231Z,1014.63
2018-02-25T02:23:28.468Z,1014.65
2018-02-25T02:24:42.439Z,1014.65
2018-02-25T02:25:56.948Z,1014.73
2018-02-25T02:27:11.185Z,1014.63
2018-02-25T02:28:25.684Z,1014.57
2018-02-25T02:29:39.937Z,1014.6
2018-02-25T02:30:54.385Z,1014.58
2018-02-25T02:32:08.146Z,1014.6
2018-02-25T02:33:22.167Z,1014.59
2018-02-25T02:34:36.459Z,1014.66
2018-02-25T02:35:51.060Z,1014.69
2018-02-25T02:37:05.573Z,1014.56
2018-02-25T02:38:20.083Z,1014.57
2018-02-25T02:39:34.589Z,1014.59
2018-02-25T02:40:48.348Z,1014.56
2018-02-25T02:42:02.559Z,1014.65
2018-02-25T02:43:16.821Z,1014.63
2018-02-25T02:44:30.363Z,1014.66
2018-02-25T02:45:44.090Z,1014.59
2018-02-25T02:46:58.598Z,1014.65
2018-02-25T02:48:12.612Z,1014.66
2018-02-25T02:49:27.087Z,1014.71
2018-02-25T02:50:41.324Z,1014.63
2018-02-25T02:51:55.541Z,1014.6
2018-02-25T02:53:09.772Z,1014.66
2018-02-25T02:54:24.267Z,1014.65
2018-02-25T02:55:38.285Z,1014.66
2018-02-25T02:56:52.989Z,1014.65
2018-02-25T02:58:07.207Z,1014.63
2018-02-25T02:59:21.211Z,1014.63
2018-02-25T03:00:35.943Z,1014.69
2018-02-25T03:01:49.682Z,1014.78
2018-02-25T03:03:04.621Z,1014.69
2018-02-25T03:04:18.917Z,1014.66
2018-02-25T03:05:32.684Z,1014.67
2018-02-25T03:06:46.911Z,1014.67
2018-02-25T03:08:01.175Z,1014.79
2018-02-25T03:09:15.749Z,1014.72
2018-02-25T03:10:29.794Z,1014.62
2018-02-25T03:11:43.518Z,1014.68
2018-02-25T03:12:57.475Z,1014.64
2018-02-25T03:14:11.700Z,1014.64
2018-02-25T03:15:26.164Z,1014.7
2018-02-25T03:16:40.621Z,1014.75
2018-02-25T03:17:54.599Z,1014.72
2018-02-25T03:19:08.133Z,1014.68
2018-02-25T03:20:21.941Z,1014.81
2018-02-25T03:21:36.174Z,1014.76
2018-02-25T03:22:49.908Z,1014.74
2018-02-25T03:24:04.136Z,1014.7
2018-02-25T03:25:18.122Z,1014.68
2018-02-25T03:26:32.644Z,1014.74
2018-02-25T03:27:46.372Z,1014.75
2018-02-25T03:29:01.107Z,1014.81
2018-02-25T03:30:14.854Z,1014.75
2018-02-25T03:31:29.114Z,1014.85
2018-02-25T03:32:43.361Z,1014.84
2018-02-25T03:33:57.558Z,1014.85
2018-02-25T03:35:12.026Z,1014.87
2018-02-25T03:36:26.515Z,1014.91
2018-02-25T03:37:40.982Z,1014.95
2018-02-25T03:38:54.927Z,1014.88
2018-02-25T03:40:09.166Z,1014.92
2018-02-25T03:41:22.925Z,1014.85
2018-02-25T03:42:36.778Z,1014.91
2018-02-25T03:43:50.763Z,1014.82
2018-02-25T03:45:04.964Z,1014.88
2018-02-25T03:46:19.171Z,1014.9
2018-02-25T03:47:33.429Z,1014.97
2018-02-25T03:48:47.887Z,1014.9
2018-02-25T03:50:02.355Z,1014.96
2018-02-25T03:51:16.851Z,1014.96
2018-02-25T03:52:31.083Z,1014.97
2018-02-25T03:53:45.080Z,1015.05
2018-02-25T03:54:58.793Z,1014.96
2018-02-25T03:56:13.020Z,1015
2018-02-25T03:57:26.779Z,1014.98
2018-02-25T03:58:41.253Z,1015.04
2018-02-25T03:59:54.766Z,1015
2018-02-25T04:01:09.034Z,1015.05
2018-02-25T04:02:23.761Z,1015.06
2018-02-25T04:03:37.744Z,1015.1
2018-02-25T04:04:51.957Z,1015.02
2018-02-25T04:06:05.444Z,1015.05
2018-02-25T04:07:19.216Z,1015.12
2018-02-25T04:08:33.725Z,1015.13
2018-02-25T04:09:47.741Z,1015.06
2018-02-25T04:11:02.231Z,1015.13
2018-02-25T04:12:16.241Z,1015.18
2018-02-25T04:13:30.481Z,1015.1
2018-02-25T04:14:44.467Z,1015.2
2018-02-25T04:15:58.567Z,1015.06
2018-02-25T04:17:12.090Z,1015.23
2018-02-25T04:18:25.880Z,1015.11
2018-02-25T04:19:40.408Z,1015.26
2018-02-25T04:20:54.656Z,1015.37
2018-02-25T04:22:09.404Z,1015.41
2018-02-25T04:23:23.917Z,1015.31
2018-02-25T04:24:38.369Z,1015.31
2018-02-25T04:25:52.138Z,1015.34
2018-02-25T04:27:06.152Z,1015.24
2018-02-25T04:28:20.411Z,1015.39
2018-02-25T04:29:34.408Z,1015.49
2018-02-25T04:30:48.656Z,1015.35
2018-02-25T04:32:03.199Z,1015.33
2018-02-25T04:33:17.015Z,1015.27
2018-02-25T04:34:31.488Z,1015.32
2018-02-25T04:35:45.979Z,1015.29
2018-02-25T04:37:00.245Z,1015.27
2018-02-25T04:38:14.002Z,1015.28
2018-02-25T04:39:28.012Z,1015.29
2018-02-25T04:40:42.728Z,1015.27
2018-02-25T04:41:56.970Z,1015.37
2018-02-25T04:43:11.189Z,1015.41
2018-02-25T04:44:24.997Z,1015.37
2018-02-25T04:45:39.463Z,1015.38
2018-02-25T04:46:53.930Z,1015.62
2018-02-25T04:48:07.709Z,1015.39
2018-02-25T04:49:21.859Z,1015.4
2018-02-25T04:50:36.587Z,1015.47
2018-02-25T04:51:50.587Z,1015.45
2018-02-25T04:53:04.832Z,1015.39
2018-02-25T04:54:19.048Z,1015.52
2018-02-25T04:55:32.775Z,1015.41
2018-02-25T04:56:46.279Z,1015.52
2018-02-25T04:58:01.017Z,1015.41
2018-02-25T04:59:15.242Z,1015.41
2018-02-25T05:00:29.481Z,1015.49
2018-02-25T05:01:43.515Z,1015.46
2018-02-25T05:02:57.999Z,1015.51
2018-02-25T05:04:12.276Z,1015.52
2018-02-25T05:05:26.535Z,1015.57
2018-02-25T05:06:40.772Z,1015.52
2018-02-25T05:07:55.258Z,1015.63
2018-02-25T05:09:09.281Z,1015.62
2018-02-25T05:10:23.047Z,1015.53
2018-02-25T05:11:37.022Z,1015.46
2018-02-25T05:12:50.568Z,1015.64
2018-02-25T05:14:04.555Z,1015.61
2018-02-25T05:15:18.305Z,1015.59
2018-02-25T05:16:32.288Z,1015.62
2018-02-25T05:17:46.491Z,1015.65
2018-02-25T05:19:00.237Z,1015.65
2018-02-25T05:20:14.220Z,1015.7
2018-02-25T05:21:28.475Z,1015.68
2018-02-25T05:22:43.068Z,1015.8
2018-02-25T05:23:57.269Z,1015.64
2018-02-25T05:25:11.500Z,1015.75
2018-02-25T05:26:25.963Z,1015.75
2018-02-25T05:27:40.239Z,1015.69
2018-02-25T05:28:54.250Z,1015.74
2018-02-25T05:30:08.723Z,1015.64
2018-02-25T05:31:22.960Z,1015.67
2018-02-25T05:32:37.226Z,1015.68
2018-02-25T05:33:51.699Z,1015.68
2018-02-25T05:35:05.972Z,1015.76
2018-02-25T05:36:19.701Z,1015.7
2018-02-25T05:37:34.158Z,1015.66
2018-02-25T05:38:48.160Z,1015.61
2018-02-25T05:40:01.878Z,1015.69
2018-02-25T05:41:15.897Z,1015.67
2018-02-25T05:42:30.604Z,1015.6
2018-02-25T05:43:44.568Z,1015.65
2018-02-25T05:44:58.322Z,1015.65
2018-02-25T05:46:12.337Z,1015.73
2018-02-25T05:47:26.572Z,1015.8
2018-02-25T05:48:41.034Z,1015.79
2018-02-25T05:49:55.757Z,1015.78
2018-02-25T05:51:09.964Z,1015.78
2018-02-25T05:52:24.195Z,1015.68
2018-02-25T05:53:38.194Z,1015.78
2018-02-25T05:54:52.400Z,1015.81
2018-02-25T05:56:06.726Z,1015.88
2018-02-25T05:57:20.965Z,1015.78
2018-02-25T05:58:35.456Z,1015.75
2018-02-25T05:59:49.945Z,1015.75
2018-02-25T06:01:03.670Z,1015.84
2018-02-25T06:02:17.631Z,1016.07
2018-02-25T06:03:31.622Z,1015.87
2018-02-25T06:04:46.121Z,1016.01
2018-02-25T06:05:59.883Z,1015.97
2018-02-25T06:07:14.372Z,1015.89
2018-02-25T06:08:28.350Z,1015.92
2018-02-25T06:09:42.569Z,1015.95
2018-02-25T06:10:56.560Z,1015.98
2018-02-25T06:12:11.026Z,1016.03
2018-02-25T06:13:25.732Z,1015.94
2018-02-25T06:14:40.467Z,1016.05
2018-02-25T06:15:54.499Z,1015.97
2018-02-25T06:17:08.272Z,1016.03
2018-02-25T06:18:22.273Z,1016
2018-02-25T06:19:36.531Z,1016.21
2018-02-25T06:20:50.548Z,1016.03
2018-02-25T06:22:04.873Z,1016.11
2018-02-25T06:23:19.099Z,1016.04
2018-02-25T06:24:33.155Z,1016.02
2018-02-25T06:25:47.641Z,1016.08
2018-02-25T06:27:01.661Z,1015.92
2018-02-25T06:28:15.889Z,1016.05
2018-02-25T06:29:30.247Z,1016.01
2018-02-25T06:30:45.021Z,1016.01
2018-02-25T06:31:59.247Z,1016.06
2018-02-25T06:33:13.219Z,1015.98
2018-02-25T06:34:27.231Z,1016.03
2018-02-25T06:35:41.270Z,1016.01
2018-02-25T06:36:55.250Z,1016.05
2018-02-25T06:38:09.231Z,1016.1
2018-02-25T06:39:23.756Z,1015.93
2018-02-25T06:40:37.988Z,1016.01
2018-02-25T06:41:52.232Z,1015.99
2018-02-25T06:43:06.454Z,1015.95
2018-02-25T06:44:20.688Z,1016.03
2018-02-25T06:45:35.178Z,1015.98
2018-02-25T06:46:49.183Z,1016.13
2018-02-25T06:48:03.674Z,1015.94
2018-02-25T06:49:18.209Z,1015.96
2018-02-25T06:50:32.207Z,1016.01
2018-02-25T06:51:46.184Z,1016.03
2018-02-25T06:53:00.237Z,1016.05
2018-02-25T06:54:13.759Z,1015.99
2018-02-25T06:55:28.008Z,1016
2018-02-25T06:56:41.792Z,1016.03
2018-02-25T06:57:55.558Z,1016
2018-02-25T06:59:09.808Z,1016.17
2018-02-25T07:00:24.055Z,1016.11
2018-02-25T07:01:38.063Z,1015.96
2018-02-25T07:02:51.932Z,1016.16
2018-02-25T07:04:06.280Z,1016.11
2018-02-25T07:05:20.788Z,1015.99
2018-02-25T07:06:35.319Z,1016.04
2018-02-25T07:07:50.059Z,1016.12
2018-02-25T07:09:03.873Z,1016.04
2018-02-25T07:10:18.101Z,1016.03
2018-02-25T07:11:32.624Z,1016.12
2018-02-25T07:12:46.631Z,1016.07
2018-02-25T07:14:00.185Z,1015.96
2018-02-25T07:15:13.721Z,1016.05
2018-02-25T07:16:28.204Z,1016.09
2018-02-25T07:17:42.673Z,1016.03
2018-02-25T07:18:57.184Z,1016.02
2018-02-25T07:20:11.414Z,1015.98
2018-02-25T07:21:25.928Z,1015.99
2018-02-25T07:22:54.818Z,1016.01
2018-02-25T07:24:08.560Z,1016.01
2018-02-25T07:25:22.163Z,1016
2018-02-25T07:26:36.160Z,1016.08
2018-02-25T07:27:49.719Z,1016.12
2018-02-25T07:29:03.775Z,1016.11
2018-02-25T07:30:17.776Z,1016.14
2018-02-25T07:31:31.785Z,1016.07
2018-02-25T07:32:45.832Z,1016.15
2018-02-25T07:33:59.830Z,1016.2
2018-02-25T07:35:14.167Z,1016.23
2018-02-25T07:36:27.442Z,1016.13
2018-02-25T07:37:41.696Z,1016.14
2018-02-25T07:38:55.939Z,1016.27
2018-02-25T07:40:09.475Z,1016.13
2018-02-25T07:41:23.961Z,1016.23
2018-02-25T07:42:37.969Z,1016.31
2018-02-25T07:43:52.186Z,1016.38
2018-02-25T07:45:06.201Z,1016.39
2018-02-25T07:46:20.428Z,1016.06
2018-02-25T07:47:49.096Z,1016.08
2018-02-25T07:49:02.636Z,1016.09
2018-02-25T07:50:17.301Z,1016.13
2018-02-25T07:51:30.872Z,1016.09
2018-02-25T07:52:45.140Z,1016.16
2018-02-25T07:53:59.618Z,1016.21
2018-02-25T07:55:14.095Z,1016.15
2018-02-25T07:56:28.337Z,1016.28
2018-02-25T07:57:42.888Z,1016.21
2018-02-25T07:58:56.984Z,1016
2018-02-25T08:00:11.019Z,1016.13
2018-02-25T08:01:25.277Z,1016.04
2018-02-25T08:02:40.031Z,1016.3
2018-02-25T08:03:54.065Z,1016
2018-02-25T08:05:08.401Z,1016.09
2018-02-25T08:06:22.608Z,1016.24
2018-02-25T08:07:37.253Z,1016.08
2018-02-25T08:08:51.738Z,1016.09
2018-02-25T08:10:05.493Z,1015.99
2018-02-25T08:11:19.443Z,1016.15
2018-02-25T08:12:33.604Z,1016.2
2018-02-25T08:13:47.904Z,1016.06
2018-02-25T08:15:01.713Z,1016.12
2018-02-25T08:16:15.715Z,1016.07
2018-02-25T08:17:29.757Z,1016.02
2018-02-25T08:18:44.018Z,1016.18
2018-02-25T08:19:58.028Z,1016.02
2018-02-25T08:21:12.037Z,1016.02
2018-02-25T08:22:26.060Z,1016.09
2018-02-25T08:23:40.817Z,1016.21
2018-02-25T08:24:54.339Z,1016.1
2018-02-25T08:26:08.900Z,1016.21
2018-02-25T08:27:22.682Z,1016.23
2018-02-25T08:28:36.189Z,1016.18
2018-02-25T08:29:50.185Z,1016.1
2018-02-25T08:31:04.416Z,1016.17
2018-02-25T08:32:18.693Z,1016.12
2018-02-25T08:33:33.199Z,1016.14
2018-02-25T08:34:47.177Z,1016.06
2018-02-25T08:36:01.405Z,1016.17
2018-02-25T08:38:43.560Z,1016.24
2018-02-25T08:39:58.444Z,1016.22
2018-02-25T08:41:12.460Z,1016.17
2018-02-25T08:42:27.226Z,1016.01
2018-02-25T08:43:41.456Z,1016
2018-02-25T08:44:55.059Z,1016.1
2018-02-25T08:46:09.596Z,1016.17
2018-02-25T08:47:23.857Z,1016
2018-02-25T08:48:37.763Z,1016.1
2018-02-25T08:49:52.054Z,1016.1
2018-02-25T08:51:06.326Z,1016.06
2018-02-25T08:52:20.665Z,1016.01
2018-02-25T08:53:34.418Z,1015.97
2018-02-25T08:54:48.161Z,1015.99
2018-02-25T08:56:01.884Z,1016.03
2018-02-25T08:57:16.177Z,1016.11
2018-02-25T08:58:30.468Z,1015.98
2018-02-25T08:59:45.003Z,1015.95
2018-02-25T09:00:59.747Z,1015.95
2018-02-25T09:02:13.521Z,1016.08
2018-02-25T09:03:28.029Z,1016.07
2018-02-25T09:04:42.272Z,1016.13
2018-02-25T09:05:56.271Z,1016.04
2018-02-25T09:07:10.807Z,1016.05
2018-02-25T09:08:24.562Z,1016.11
2018-02-25T09:09:39.043Z,1016.13
2018-02-25T09:10:53.063Z,1016.14
2018-02-25T09:12:06.580Z,1016.17
2018-02-25T09:13:21.176Z,1016.03
2018-02-25T09:14:35.428Z,1016.4
2018-02-25T09:15:49.928Z,1016.1
2018-02-25T09:17:03.931Z,1016.3
2018-02-25T09:18:18.013Z,1016.02
2018-02-25T09:19:32.235Z,1016.1
2018-02-25T09:20:46.010Z,1016.21
2018-02-25T09:22:00.500Z,1016.17
2018-02-25T09:23:14.756Z,1016.09
2018-02-25T09:24:28.295Z,1016.22
2018-02-25T09:25:42.067Z,1016.17
2018-02-25T09:26:56.344Z,1016.12
2018-02-25T09:28:10.509Z,1016.23
2018-02-25T09:29:24.503Z,1016.23
2018-02-25T09:30:38.712Z,1016.15
2018-02-25T09:31:52.945Z,1016.06
2018-02-25T09:33:07.166Z,1016.13
2018-02-25T09:34:21.187Z,1016.08
2018-02-25T09:35:34.710Z,1016.05
2018-02-25T09:36:48.729Z,1015.97
2018-02-25T09:38:02.994Z,1016.02
2018-02-25T09:39:16.734Z,1016.01
2018-02-25T09:40:31.036Z,1016.21
2018-02-25T09:41:45.293Z,1016.06
2018-02-25T09:42:59.539Z,1016.12
2018-02-25T09:44:13.569Z,1016
2018-02-25T09:45:27.799Z,1015.96
2018-02-25T09:46:41.684Z,1016.06
2018-02-25T09:47:56.178Z,1016.21
2018-02-25T09:49:10.226Z,1016.09
2018-02-25T09:50:24.537Z,1016.06
2018-02-25T09:51:38.550Z,1016
2018-02-25T09:52:52.568Z,1016.12
2018-02-25T09:54:07.137Z,1016.32
2018-02-25T09:55:21.819Z,1016.08
2018-02-25T09:56:35.668Z,1016.19
2018-02-25T09:57:49.922Z,1015.99
2018-02-25T09:59:03.959Z,1015.94
2018-02-25T10:00:17.986Z,1015.94
2018-02-25T10:01:32.008Z,1015.89
2018-02-25T10:02:46.044Z,1015.93
2018-02-25T10:04:00.119Z,1015.99
2018-02-25T10:05:14.624Z,1015.86
2018-02-25T10:06:28.883Z,1016.07
2018-02-25T10:07:43.150Z,1016.04
2018-02-25T10:08:57.472Z,1015.83
2018-02-25T10:10:11.481Z,1015.77
2018-02-25T10:11:25.226Z,1015.83
2018-02-25T10:12:39.728Z,1015.98
2018-02-25T10:13:53.731Z,1016.06
2018-02-25T10:15:07.497Z,1016.04
2018-02-25T10:16:21.762Z,1015.85
2018-02-25T10:17:35.797Z,1015.9
2018-02-25T10:18:50.012Z,1016.05
2018-02-25T10:20:03.968Z,1015.97
2018-02-25T10:21:18.298Z,1015.96
2018-02-25T10:22:32.322Z,1016.05
2018-02-25T10:23:47.058Z,1015.97
2018-02-25T10:25:00.807Z,1015.93
2018-02-25T10:26:14.849Z,1016.05
2018-02-25T10:27:29.107Z,1015.97
2018-02-25T10:28:42.925Z,1015.78
2018-02-25T10:29:57.657Z,1015.76
2018-02-25T10:31:11.903Z,1015.73
2018-02-25T10:32:26.144Z,1015.92
2018-02-25T10:33:40.430Z,1015.75
2018-02-25T10:34:54.459Z,1015.81
2018-02-25T10:36:08.002Z,1015.74
2018-02-25T10:37:22.298Z,1015.76
2018-02-25T10:38:36.474Z,1015.66
2018-02-25T10:39:50.592Z,1015.78
2018-02-25T10:41:04.823Z,1015.92
2018-02-25T10:42:18.584Z,1015.65
2018-02-25T10:43:33.065Z,1015.56
2018-02-25T10:44:47.288Z,1015.72
2018-02-25T10:46:01.779Z,1015.56
2018-02-25T10:47:15.088Z,1015.47
2018-02-25T10:48:29.811Z,1015.63
2018-02-25T10:49:43.556Z,1015.56
2018-02-25T10:50:58.051Z,1015.72
2018-02-25T10:52:12.049Z,1015.47
2018-02-25T10:53:25.922Z,1015.58
2018-02-25T10:54:40.398Z,1015.46
2018-02-25T10:55:55.173Z,1015.6
2018-02-25T10:57:09.232Z,1015.42
2018-02-25T10:58:23.254Z,1015.43
2018-02-25T10:59:37.744Z,1015.32
2018-02-25T11:00:52.013Z,1015.38
2018-02-25T11:02:05.519Z,1015.39
2018-02-25T11:03:19.758Z,1015.32
2018-02-25T11:04:33.986Z,1015.27
2018-02-25T11:05:48.246Z,1015.3
2018-02-25T11:07:02.520Z,1015.4
2018-02-25T11:08:16.767Z,1015.4
2018-02-25T11:09:30.550Z,1015.25
2018-02-25T11:10:44.332Z,1015.34
2018-02-25T11:11:57.825Z,1015.33
2018-02-25T11:13:12.127Z,1015.33
2018-02-25T11:14:26.117Z,1015.25
2018-02-25T11:15:39.894Z,1015.33
2018-02-25T11:16:53.670Z,1015.29
2018-02-25T11:18:07.693Z,1015.2
2018-02-25T11:19:22.207Z,1015.11
2018-02-25T11:20:36.462Z,1015.18
2018-02-25T11:21:50.993Z,1015.22
2018-02-25T11:23:05.771Z,1015.12
2018-02-25T11:24:19.561Z,1015.17
2018-02-25T11:25:33.853Z,1015.18
2018-02-25T11:26:48.249Z,1015.12
2018-02-25T11:28:02.774Z,1015.12
2018-02-25T11:29:16.524Z,1015.16
2018-02-25T11:30:31.304Z,1015.1
2018-02-25T11:31:45.820Z,1015.18
2018-02-25T11:33:00.305Z,1015.07
2018-02-25T11:34:14.840Z,1014.97
2018-02-25T11:35:28.644Z,1014.94
2018-02-25T11:36:42.650Z,1015.11
2018-02-25T11:37:56.445Z,1015.01
2018-02-25T11:39:10.061Z,1015.07
2018-02-25T11:40:24.330Z,1015.28
2018-02-25T11:41:38.135Z,1015.03
2018-02-25T11:42:51.926Z,1015.01
2018-02-25T11:44:06.178Z,1014.87
2018-02-25T11:45:19.742Z,1014.88
2018-02-25T11:46:33.505Z,1014.83
2018-02-25T11:47:47.564Z,1014.99
2018-02-25T11:49:02.087Z,1014.98
2018-02-25T11:50:16.133Z,1014.9
2018-02-25T11:51:30.618Z,1014.98
2018-02-25T11:52:44.882Z,1015.11
2018-02-25T11:53:58.650Z,1015.24
2018-02-25T11:55:12.944Z,1015.18
2018-02-25T11:56:27.088Z,1015.02
2018-02-25T11:57:41.094Z,1015.04
2018-02-25T11:58:55.360Z,1015.01
2018-02-25T12:00:09.695Z,1014.96
2018-02-25T12:01:24.269Z,1015.12
2018-02-25T12:02:37.836Z,1014.99
2018-02-25T12:03:51.421Z,1014.86
2018-02-25T12:05:05.714Z,1014.97
2018-02-25T12:06:19.966Z,1014.78
2018-02-25T12:07:33.972Z,1014.97
2018-02-25T12:08:48.225Z,1015.06
2018-02-25T12:10:02.505Z,1015.06
2018-02-25T12:11:16.653Z,1014.89
2018-02-25T12:12:30.699Z,1014.88
2018-02-25T12:13:45.405Z,1014.86
2018-02-25T12:14:59.612Z,1014.84
2018-02-25T12:16:13.467Z,1014.84
2018-02-25T12:17:27.952Z,1015.04
2018-02-25T12:18:41.946Z,1014.82
2018-02-25T12:19:55.512Z,1014.8
2018-02-25T12:21:09.785Z,1014.8
2018-02-25T12:22:24.072Z,1014.73
2018-02-25T12:23:38.588Z,1014.86
2018-02-25T12:24:53.050Z,1014.8
2018-02-25T12:26:07.309Z,1014.67
2018-02-25T12:27:21.104Z,1014.89
2018-02-25T12:28:35.178Z,1014.72
2018-02-25T12:29:49.943Z,1014.64
2018-02-25T12:31:04.447Z,1014.58
2018-02-25T12:32:18.223Z,1014.51
2018-02-25T12:33:32.324Z,1014.5
2018-02-25T12:34:46.349Z,1014.69
2018-02-25T12:36:00.942Z,1014.58
2018-02-25T12:37:15.236Z,1014.51
2018-02-25T12:38:29.245Z,1014.75
2018-02-25T12:39:42.994Z,1014.68
2018-02-25T12:40:57.223Z,1014.62
2018-02-25T12:42:11.813Z,1014.56
2018-02-25T12:43:25.393Z,1014.6
2018-02-25T12:44:39.639Z,1014.69
2018-02-25T12:45:53.421Z,1014.36
2018-02-25T12:47:07.444Z,1014.34
2018-02-25T12:48:21.951Z,1014.55
2018-02-25T12:49:35.996Z,1014.5
2018-02-25T12:50:50.038Z,1014.32
2018-02-25T12:52:04.093Z,1014.33
2018-02-25T12:53:18.601Z,1014.32
2018-02-25T12:54:33.116Z,1014.35
2018-02-25T12:55:47.401Z,1014.26
2018-02-25T12:57:01.684Z,1014.35
2018-02-25T12:58:15.254Z,1014.26
2018-02-25T12:59:29.800Z,1014.33
2018-02-25T13:00:44.296Z,1014.2
2018-02-25T13:01:58.334Z,1014.22
2018-02-25T13:03:12.851Z,1014.23
2018-02-25T13:04:26.943Z,1014.24
2018-02-25T13:05:40.942Z,1014.23
2018-02-25T13:06:55.189Z,1014.22
2018-02-25T13:08:08.977Z,1014.25
2018-02-25T13:09:23.522Z,1014.24
2018-02-25T13:10:37.783Z,1014.12
2018-02-25T13:11:51.647Z,1014.37
2018-02-25T13:13:05.710Z,1014.07
2018-02-25T13:14:20.236Z,1014.25
2018-02-25T13:15:34.532Z,1014.2
2018-02-25T13:16:49.055Z,1013.96
2018-02-25T13:18:02.791Z,1013.95
2018-02-25T13:19:16.823Z,1013.85
2018-02-25T13:20:31.064Z,1014.12
2018-02-25T13:21:45.551Z,1013.88
2018-02-25T13:22:59.940Z,1014.08
2018-02-25T13:24:14.067Z,1013.79
2018-02-25T13:25:28.496Z,1013.91
2018-02-25T13:26:42.548Z,1013.96
2018-02-25T13:27:56.624Z,1013.84
2018-02-25T13:29:10.410Z,1013.78
2018-02-25T13:30:24.436Z,1013.8
2018-02-25T13:31:38.710Z,1013.77
2018-02-25T13:32:52.532Z,1013.77
2018-02-25T13:34:06.546Z,1013.74
2018-02-25T13:35:21.307Z,1013.91
2018-02-25T13:36:36.075Z,1013.83
2018-02-25T13:37:50.386Z,1013.83
2018-02-25T13:39:04.631Z,1013.76
2018-02-25T13:40:18.831Z,1013.96
2018-02-25T13:41:32.951Z,1013.89
2018-02-25T13:42:47.228Z,1013.81
2018-02-25T13:44:01.735Z,1013.82
2018-02-25T13:45:16.002Z,1013.88
2018-02-25T13:46:30.031Z,1013.9
2018-02-25T13:47:44.324Z,1013.81
2018-02-25T13:48:58.364Z,1013.65
2018-02-25T13:50:12.636Z,1013.61
2018-02-25T13:51:26.938Z,1013.77
2018-02-25T13:52:40.931Z,1013.75
2018-02-25T13:53:54.750Z,1014.03
2018-02-25T13:55:09.113Z,1013.79
2018-02-25T13:56:23.660Z,1013.81
2018-02-25T13:57:38.199Z,1013.74
2018-02-25T13:58:52.509Z,1013.66
2018-02-25T14:00:06.792Z,1013.65
2018-02-25T14:01:21.305Z,1013.57
2018-02-25T14:02:35.424Z,1013.54
2018-02-25T14:03:48.955Z,1013.72
2018-02-25T14:05:03.233Z,1013.8
2018-02-25T14:06:17.755Z,1013.89
2018-02-25T14:07:31.764Z,1013.66
2018-02-25T14:08:45.773Z,1013.68
2018-02-25T14:09:59.552Z,1013.83
2018-02-25T14:11:13.839Z,1013.92
2018-02-25T14:12:28.171Z,1013.63
2018-02-25T14:13:42.819Z,1013.7
2018-02-25T14:14:57.347Z,1013.55
2018-02-25T14:16:12.194Z,1013.62
2018-02-25T14:17:26.268Z,1013.66
2018-02-25T14:18:40.062Z,1013.66
2018-02-25T14:19:54.339Z,1013.49
2018-02-25T14:21:08.968Z,1013.56
2018-02-25T14:22:23.134Z,1013.81
2018-02-25T14:23:37.498Z,1013.59
2018-02-25T14:24:51.598Z,1013.55
2018-02-25T14:26:05.960Z,1013.85
2018-02-25T14:27:19.790Z,1013.77
2018-02-25T14:28:33.588Z,1013.51
2018-02-25T14:29:47.422Z,1013.64
2018-02-25T14:31:16.842Z,1013.62
2018-02-25T14:32:31.686Z,1013.64
2018-02-25T14:33:46.044Z,1013.62
2018-02-25T14:34:59.841Z,1013.77
2018-02-25T14:36:14.138Z,1013.67
2018-02-25T14:37:28.203Z,1013.61
2018-02-25T14:38:42.490Z,1013.49
2018-02-25T14:39:57.004Z,1013.42
2018-02-25T14:41:11.658Z,1013.55
2018-02-25T14:42:25.759Z,1013.49
2018-02-25T14:43:40.152Z,1013.91
2018-02-25T14:44:54.447Z,1013.42
2018-02-25T14:46:08.360Z,1013.76
2018-02-25T14:47:22.709Z,1013.76
2018-02-25T14:48:36.244Z,1013.39
2018-02-25T14:49:50.581Z,1013.32
2018-02-25T14:51:04.827Z,1013.37
2018-02-25T14:52:18.929Z,1013.35
2018-02-25T14:53:32.946Z,1013.37
2018-02-25T14:54:47.229Z,1013.51
2018-02-25T14:56:01.263Z,1013.62
2018-02-25T14:57:15.524Z,1013.55
2018-02-25T14:58:29.845Z,1013.5
2018-02-25T14:59:43.629Z,1013.61
2018-02-25T15:00:58.169Z,1013.59
2018-02-25T15:02:11.742Z,1013.53